createdAt,value
2018-11-04T00:01:11.389Z,99779.25
2018-11-04T00:03:47.302Z,99772.97
2018-11-04T00:06:20.895Z,99769.80
2018-11-04T00:08:54.932Z,99770.91
2018-11-04T00:11:27.963Z,99760.03
2018-11-04T00:14:03.993Z,99748.41
2018-11-04T00:16:38.997Z,99748.47
2018-11-04T00:19:14.014Z,99750.66
2018-11-04T00:21:47.846Z,99742.87
2018-11-04T00:24:21.630Z,99741.36
2018-11-04T00:26:55.031Z,99736.26
2018-11-04T00:29:30.704Z,99734.70
2018-11-04T00:32:05.681Z,99730.26
2018-11-04T00:34:40.483Z,99729.80
2018-11-04T00:37:13.750Z,99723.65
2018-11-04T00:39:47.969Z,99719.81
2018-11-04T00:42:22.697Z,99712.44
2018-11-04T00:44:58.398Z,99721.23
2018-11-04T00:47:33.515Z,99712.56
2018-11-04T00:50:10.379Z,99713.61
2018-11-04T00:52:45.162Z,99708.91
2018-11-04T00:55:16.728Z,99696.29
2018-11-04T00:57:49.588Z,99691.06
2018-11-04T01:00:23.370Z,99684.98
2018-11-04T01:02:58.979Z,99677.80
2018-11-04T01:05:33.546Z,99685.69
2018-11-04T01:08:09.281Z,99682.23
2018-11-04T01:10:43.966Z,99677.25
2018-11-04T01:13:19.381Z,99671.95
2018-11-04T01:15:52.597Z,99666.52
2018-11-04T01:18:27.080Z,99668.63
2018-11-04T01:21:00.982Z,99662.56
2018-11-04T01:23:35.191Z,99651.06
2018-11-04T01:26:08.851Z,99661.26
2018-11-04T01:28:43.792Z,99655.23
2018-11-04T01:31:18.663Z,99654.42
2018-11-04T01:33:53.088Z,99653.48
2018-11-04T01:36:27.070Z,99651.01
2018-11-04T01:39:02.387Z,99655.53
2018-11-04T01:41:38.745Z,99649.63
2018-11-04T01:44:12.614Z,99646.05
2018-11-04T01:46:44.171Z,99642.41
2018-11-04T01:49:15.938Z,99637.75
2018-11-04T01:51:47.982Z,99637.95
2018-11-04T01:54:18.697Z,99632.70
2018-11-04T01:56:49.906Z,99634.50
2018-11-04T01:59:22.391Z,99629.10
2018-11-04T02:01:54.090Z,99624.55
2018-11-04T02:04:25.516Z,99622.41
2018-11-04T02:06:55.863Z,99616.43
2018-11-04T02:09:30.051Z,99616.83
2018-11-04T02:12:00.582Z,99610.92
2018-11-04T02:14:31.321Z,99611.75
2018-11-04T02:17:01.830Z,99606.38
2018-11-04T02:19:32.250Z,99601.09
2018-11-04T02:22:03.591Z,99595.25
2018-11-04T02:24:33.963Z,99590.02
2018-11-04T02:27:04.228Z,99587.94
2018-11-04T02:29:34.561Z,99584.78
2018-11-04T02:32:04.862Z,99592.88
2018-11-04T02:34:35.272Z,99592.69
2018-11-04T02:37:05.576Z,99595.45
2018-11-04T02:39:35.991Z,99593.03
2018-11-04T02:42:06.382Z,99593.80
2018-11-04T02:44:36.754Z,99590.94
2018-11-04T02:47:07.091Z,99592.96
2018-11-04T02:49:37.354Z,99589.80
2018-11-04T02:52:07.788Z,99584.64
2018-11-04T02:54:38.167Z,99580.30
2018-11-04T02:57:08.455Z,99579.33
2018-11-04T02:59:38.823Z,99580.34
2018-11-04T03:02:09.217Z,99582.78
2018-11-04T03:04:39.611Z,99579.80
2018-11-04T03:07:12.306Z,99573.70
2018-11-04T03:09:45.569Z,99570.09
2018-11-04T03:12:18.358Z,99567.91
2018-11-04T03:14:48.876Z,99561.92
2018-11-04T03:17:19.242Z,99549.82
2018-11-04T03:19:49.636Z,99554.20
2018-11-04T03:22:19.887Z,99548.69
2018-11-04T03:24:50.382Z,99543.53
2018-11-04T03:27:20.692Z,99547.86
2018-11-04T03:29:50.786Z,99542.52
2018-11-04T03:32:21.032Z,99548.55
2018-11-04T03:34:51.382Z,99555.23
2018-11-04T03:37:21.622Z,99550.33
2018-11-04T03:39:52.054Z,99548.19
2018-11-04T03:42:22.335Z,99549.79
2018-11-04T03:44:52.690Z,99542.70
2018-11-04T03:47:23.012Z,99538.23
2018-11-04T03:49:53.389Z,99544.23
2018-11-04T03:52:23.690Z,99536.31
2018-11-04T03:54:54.121Z,99538.92
2018-11-04T03:57:24.415Z,99531.91
2018-11-04T03:59:54.862Z,99534.88
2018-11-04T04:02:25.186Z,99527.36
2018-11-04T04:04:55.599Z,99533.84
2018-11-04T04:07:25.919Z,99525.30
2018-11-04T04:09:56.359Z,99526.53
2018-11-04T04:12:26.754Z,99522.17
2018-11-04T04:14:56.348Z,99525.77
2018-11-04T04:17:26.710Z,99517.55
2018-11-04T04:19:56.948Z,99512.47
2018-11-04T04:22:27.335Z,99515.70
2018-11-04T04:24:57.587Z,99506.55
2018-11-04T04:27:27.747Z,99502.62
2018-11-04T04:29:58.035Z,99514.00
2018-11-04T04:32:27.798Z,99500.08
2018-11-04T04:34:58.155Z,99503.06
2018-11-04T04:37:28.493Z,99498.05
2018-11-04T04:39:58.788Z,99491.11
2018-11-04T04:42:29.154Z,99491.19
2018-11-04T04:44:59.459Z,99491.66
2018-11-04T04:47:29.407Z,99488.75
2018-11-04T04:50:05.932Z,99487.81
2018-11-04T04:52:36.295Z,99484.44
2018-11-04T04:55:06.836Z,99489.08
2018-11-04T04:57:37.224Z,99493.77
2018-11-04T05:00:08.567Z,99488.83
2018-11-04T05:02:39.025Z,99492.06
2018-11-04T05:05:09.295Z,99486.91
2018-11-04T05:07:42.368Z,99486.83
2018-11-04T05:10:14.698Z,99485.59
2018-11-04T05:12:45.077Z,99484.98
2018-11-04T05:15:15.296Z,99480.69
2018-11-04T05:17:45.628Z,99480.44
2018-11-04T05:20:16.068Z,99489.67
2018-11-04T05:22:46.504Z,99484.22
2018-11-04T05:25:16.699Z,99486.69
2018-11-04T05:27:47.007Z,99481.95
2018-11-04T05:30:17.319Z,99476.58
2018-11-04T05:32:47.745Z,99480.25
2018-11-04T05:35:18.061Z,99477.13
2018-11-04T05:37:48.442Z,99479.27
2018-11-04T05:40:18.702Z,99481.48
2018-11-04T05:42:49.067Z,99483.94
2018-11-04T05:45:19.306Z,99486.23
2018-11-04T05:47:49.954Z,99491.23
2018-11-04T05:50:20.202Z,99485.06
2018-11-04T05:52:50.578Z,99482.84
2018-11-04T05:55:20.901Z,99481.36
2018-11-04T05:57:51.257Z,99481.83
2018-11-04T06:00:22.096Z,99488.06
2018-11-04T06:02:52.463Z,99487.52
2018-11-04T06:05:22.692Z,99482.09
2018-11-04T06:07:53.081Z,99482.08
2018-11-04T06:10:23.206Z,99486.48
2018-11-04T06:12:53.616Z,99484.94
2018-11-04T06:15:23.933Z,99481.02
2018-11-04T06:17:54.306Z,99482.94
2018-11-04T06:20:24.293Z,99499.66
2018-11-04T06:22:54.661Z,99494.22
2018-11-04T06:25:25.068Z,99492.82
2018-11-04T06:27:55.487Z,99502.62
2018-11-04T06:30:25.759Z,99496.17
2018-11-04T06:32:56.129Z,99499.27
2018-11-04T06:35:26.439Z,99500.10
2018-11-04T06:37:56.880Z,99497.48
2018-11-04T06:40:27.172Z,99504.63
2018-11-04T06:42:57.592Z,99510.95
2018-11-04T06:45:27.876Z,99505.73
2018-11-04T06:48:02.147Z,99490.28
2018-11-04T06:50:32.438Z,99477.98
2018-11-04T06:53:02.837Z,99479.16
2018-11-04T06:55:33.123Z,99478.53
2018-11-04T06:58:03.514Z,99473.45
2018-11-04T07:00:33.831Z,99480.17
2018-11-04T07:03:04.240Z,99470.76
2018-11-04T07:05:39.053Z,99474.92
2018-11-04T07:08:09.276Z,99473.62
2018-11-04T07:10:43.644Z,99478.31
2018-11-04T07:13:15.111Z,99472.53
2018-11-04T07:15:46.432Z,99477.02
2018-11-04T07:18:16.812Z,99476.17
2018-11-04T07:20:47.229Z,99478.19
2018-11-04T07:23:17.665Z,99479.22
2018-11-04T07:25:48.199Z,99481.33
2018-11-04T07:28:22.518Z,99479.82
2018-11-04T07:30:58.089Z,99482.30
2018-11-04T07:33:30.861Z,99480.16
2018-11-04T07:36:01.498Z,99474.33
2018-11-04T07:38:35.406Z,99469.56
2018-11-04T07:41:10.380Z,99463.03
2018-11-04T07:43:45.644Z,99459.34
2018-11-04T07:46:20.133Z,99457.52
2018-11-04T07:48:52.161Z,99459.73
2018-11-04T07:51:22.469Z,99454.36
2018-11-04T07:53:54.837Z,99454.76
2018-11-04T07:56:30.057Z,99449.28
2018-11-04T07:59:02.798Z,99451.27
2018-11-04T08:01:33.562Z,99452.59
2018-11-04T08:04:04.667Z,99447.83
2018-11-04T08:06:35.601Z,99451.59
2018-11-04T08:09:08.575Z,99455.89
2018-11-04T08:11:38.988Z,99457.45
2018-11-04T08:14:09.520Z,99456.06
2018-11-04T08:16:39.990Z,99454.38
2018-11-04T08:19:11.110Z,99454.59
2018-11-04T08:21:41.962Z,99453.83
2018-11-04T08:24:14.258Z,99465.79
2018-11-04T08:26:44.985Z,99454.30
2018-11-04T08:29:15.208Z,99451.70
2018-11-04T08:31:49.061Z,99455.55
2018-11-04T08:34:27.378Z,99454.45
2018-11-04T08:36:58.204Z,99446.72
2018-11-04T08:39:30.424Z,99442.56
2018-11-04T08:42:02.016Z,99441.62
2018-11-04T08:44:32.343Z,99443.88
2018-11-04T08:47:02.541Z,99439.48
2018-11-04T08:49:32.921Z,99443.44
2018-11-04T08:52:03.238Z,99439.11
2018-11-04T08:54:41.557Z,99432.62
2018-11-04T08:57:11.748Z,99426.88
2018-11-04T08:59:42.175Z,99433.02
2018-11-04T09:02:12.560Z,99430.11
2018-11-04T09:04:42.946Z,99435.89
2018-11-04T09:07:13.247Z,99429.78
2018-11-04T09:09:43.666Z,99418.58
2018-11-04T09:12:13.942Z,99412.66
2018-11-04T09:14:44.288Z,99411.97
2018-11-04T09:17:15.441Z,99410.39
2018-11-04T09:19:45.781Z,99411.09
2018-11-04T09:22:16.116Z,99400.70
2018-11-04T09:24:46.385Z,99402.49
2018-11-04T09:27:16.535Z,99401.47
2018-11-04T09:29:46.760Z,99395.55
2018-11-04T09:32:16.888Z,99393.77
2018-11-04T09:34:47.249Z,99401.19
2018-11-04T09:37:17.411Z,99396.11
2018-11-04T09:39:47.700Z,99394.77
2018-11-04T09:42:17.874Z,99396.44
2018-11-04T09:44:48.156Z,99396.25
2018-11-04T09:47:18.459Z,99384.50
2018-11-04T09:49:49.387Z,99388.03
2018-11-04T09:52:19.679Z,99385.53
2018-11-04T09:54:50.074Z,99377.93
2018-11-04T09:57:20.375Z,99385.36
2018-11-04T09:59:50.819Z,99379.38
2018-11-04T10:02:21.395Z,99373.47
2018-11-04T10:04:51.600Z,99373.92
2018-11-04T10:07:21.796Z,99370.72
2018-11-04T10:09:52.229Z,99369.47
2018-11-04T10:12:22.511Z,99367.03
2018-11-04T10:14:56.430Z,99355.66
2018-11-04T10:17:30.346Z,99355.94
2018-11-04T10:20:01.270Z,99349.27
2018-11-04T10:22:31.358Z,99351.52
2018-11-04T10:25:01.784Z,99352.73
2018-11-04T10:27:34.993Z,99352.05
2018-11-04T10:30:05.489Z,99346.94
2018-11-04T10:32:35.811Z,99341.30
2018-11-04T10:35:07.767Z,99339.06
2018-11-04T10:37:40.718Z,99329.47
2018-11-04T10:40:16.159Z,99331.50
2018-11-04T10:42:50.112Z,99326.45
2018-11-04T10:45:23.127Z,99326.22
2018-11-04T10:47:56.249Z,99324.73
2018-11-04T10:50:30.851Z,99310.78
2018-11-04T10:53:01.252Z,99314.52
2018-11-04T10:55:31.697Z,99308.59
2018-11-04T10:58:02.107Z,99312.16
2018-11-04T11:00:37.161Z,99308.91
2018-11-04T11:03:07.518Z,99299.64
2018-11-04T11:05:37.918Z,99296.03
2018-11-04T11:08:08.242Z,99295.48
2018-11-04T11:10:38.513Z,99288.10
2018-11-04T11:13:08.707Z,99283.36
2018-11-04T11:15:38.952Z,99273.31
2018-11-04T11:18:09.179Z,99267.08
2018-11-04T11:20:39.487Z,99259.14
2018-11-04T11:23:09.776Z,99253.77
2018-11-04T11:25:40.090Z,99240.55
2018-11-04T11:28:10.508Z,99241.66
2018-11-04T11:30:41.186Z,99236.99
2018-11-04T11:33:11.525Z,99218.78
2018-11-04T11:35:45.288Z,99216.73
2018-11-04T11:38:17.232Z,99213.10
2018-11-04T11:40:49.923Z,99205.66
2018-11-04T11:43:24.373Z,99190.59
2018-11-04T11:45:58.409Z,99189.23
2018-11-04T11:48:32.551Z,99191.06
2018-11-04T11:51:05.840Z,99191.63
2018-11-04T11:53:40.124Z,99194.89
2018-11-04T11:56:14.218Z,99195.98
2018-11-04T11:58:48.003Z,99197.95
2018-11-04T12:01:21.083Z,99207.86
2018-11-04T12:03:55.935Z,99203.45
2018-11-04T12:06:29.608Z,99201.91
2018-11-04T12:09:04.424Z,99194.95
2018-11-04T12:11:39.602Z,99183.20
2018-11-04T12:14:16.412Z,99186.37
2018-11-04T12:16:47.023Z,99182.68
2018-11-04T12:19:23.485Z,99173.00
2018-11-04T12:21:59.110Z,99167.36
2018-11-04T12:24:31.372Z,99156.38
2018-11-04T12:27:06.051Z,99156.30
2018-11-04T12:29:40.134Z,99150.27
2018-11-04T12:32:14.099Z,99142.59
2018-11-04T12:34:48.002Z,99143.20
2018-11-04T12:37:21.813Z,99143.80
2018-11-04T12:39:56.169Z,99145.95
2018-11-04T12:42:32.242Z,99133.73
2018-11-04T12:45:06.293Z,99134.22
2018-11-04T12:47:41.537Z,99131.59
2018-11-04T12:50:16.108Z,99133.02
2018-11-04T12:52:50.049Z,99132.42
2018-11-04T12:55:25.157Z,99129.19
2018-11-04T12:57:57.901Z,99127.74
2018-11-04T13:00:32.208Z,99118.64
2018-11-04T13:03:07.989Z,99111.09
2018-11-04T13:05:43.035Z,99113.97
2018-11-04T13:08:18.227Z,99112.87
2018-11-04T13:10:56.825Z,99110.97
2018-11-04T13:13:32.497Z,99101.59
2018-11-04T13:16:06.218Z,99100.40
2018-11-04T13:18:39.346Z,99099.67
2018-11-04T13:21:15.468Z,99090.69
2018-11-04T13:23:52.667Z,99089.97
2018-11-04T13:26:27.037Z,99090.66
2018-11-04T13:28:59.976Z,99090.52
2018-11-04T13:31:34.024Z,99088.60
2018-11-04T13:34:09.540Z,99087.16
2018-11-04T13:36:43.832Z,99088.70
2018-11-04T13:39:22.640Z,99083.32
2018-11-04T13:41:56.319Z,99084.13
2018-11-04T13:44:29.648Z,99083.57
2018-11-04T13:47:04.544Z,99079.97
2018-11-04T13:49:35.163Z,99072.41
2018-11-04T13:52:05.628Z,99071.05
2018-11-04T13:54:36.023Z,99068.56
2018-11-04T13:57:08.401Z,99061.31
2018-11-04T13:59:42.088Z,99062.39
2018-11-04T14:02:15.479Z,99057.70
2018-11-04T14:04:49.385Z,99043.50
2018-11-04T14:07:24.324Z,99036.03
2018-11-04T14:09:58.873Z,99039.08
2018-11-04T14:12:32.489Z,99028.52
2018-11-04T14:15:06.742Z,99028.83
2018-11-04T14:17:39.710Z,99034.41
2018-11-04T14:20:15.178Z,99046.54
2018-11-04T14:22:48.845Z,99044.01
2018-11-04T14:25:23.272Z,99046.60
2018-11-04T14:28:01.060Z,99045.14
2018-11-04T14:30:35.864Z,99040.50
2018-11-04T14:33:08.462Z,99024.14
2018-11-04T14:35:41.891Z,99029.67
2018-11-04T14:38:15.623Z,99026.87
2018-11-04T14:40:49.285Z,99020.80
2018-11-04T14:43:22.923Z,99030.31
2018-11-04T14:45:53.416Z,99023.47
2018-11-04T14:48:25.249Z,99021.77
2018-11-04T14:50:55.565Z,99021.44
2018-11-04T14:53:26.555Z,99024.84
2018-11-04T14:55:59.228Z,99025.98
2018-11-04T14:58:29.375Z,99025.16
2018-11-04T15:01:00.119Z,99021.27
2018-11-04T15:03:31.152Z,99016.73
2018-11-04T15:06:01.311Z,99012.19
2018-11-04T15:08:35.842Z,99011.19
2018-11-04T15:11:06.494Z,99004.42
2018-11-04T15:13:39.504Z,99004.91
2018-11-04T15:16:19.890Z,98997.23
2018-11-04T15:18:54.349Z,98990.58
2018-11-04T15:21:28.646Z,98985.83
2018-11-04T15:24:01.045Z,98989.34
2018-11-04T15:26:33.491Z,98988.44
2018-11-04T15:29:20.113Z,98992.12
2018-11-04T15:31:54.228Z,98980.64
2018-11-04T15:34:24.904Z,98975.97
2018-11-04T15:37:01.566Z,98980.14
2018-11-04T15:39:35.954Z,98981.20
2018-11-04T15:42:14.966Z,98969.46
2018-11-04T15:44:51.735Z,98976.39
2018-11-04T15:47:34.902Z,98985.50
2018-11-04T15:50:13.511Z,98981.17
2018-11-04T15:52:46.003Z,98973.95
2018-11-04T15:55:26.477Z,98960.98
2018-11-04T15:58:01.034Z,98957.96
2018-11-04T16:00:35.886Z,98954.78
2018-11-04T16:03:11.337Z,98955.95
2018-11-04T16:05:45.695Z,98959.78
2018-11-04T16:08:22.057Z,98967.59
2018-11-04T16:10:56.503Z,98976.91
2018-11-04T16:13:30.790Z,98977.91
2018-11-04T16:16:06.242Z,98968.42
2018-11-04T16:18:41.398Z,98964.39
2018-11-04T16:21:15.453Z,98963.20
2018-11-04T16:23:47.667Z,98949.05
2018-11-04T16:26:21.930Z,98958.39
2018-11-04T16:28:56.104Z,98955.02
2018-11-04T16:31:29.935Z,98962.06
2018-11-04T16:34:01.416Z,98973.13
2018-11-04T16:36:34.491Z,98979.38
2018-11-04T16:39:15.238Z,98970.60
2018-11-04T16:41:48.241Z,98971.48
2018-11-04T16:44:20.035Z,98987.14
2018-11-04T16:46:55.184Z,98993.17
2018-11-04T16:49:30.492Z,98994.53
2018-11-04T16:52:02.859Z,98992.77
2018-11-04T16:54:36.694Z,98991.25
2018-11-04T16:57:15.289Z,98992.23
2018-11-04T16:59:50.333Z,98983.91
2018-11-04T17:02:24.113Z,98980.86
2018-11-04T17:05:03.029Z,98970.98
2018-11-04T17:07:38.540Z,98970.38
2018-11-04T17:10:08.630Z,98958.39
2018-11-04T17:12:41.354Z,98968.50
2018-11-04T17:15:16.782Z,98959.75
2018-11-04T17:17:49.984Z,98964.61
2018-11-04T17:20:26.136Z,98963.84
2018-11-04T17:22:56.609Z,98959.96
2018-11-04T17:25:27.729Z,98959.42
2018-11-04T17:28:04.650Z,98957.04
2018-11-04T17:30:43.149Z,98955.67
2018-11-04T17:33:18.448Z,98964.47
2018-11-04T17:35:49.059Z,98970.80
2018-11-04T17:38:20.114Z,98977.36
2018-11-04T17:40:54.351Z,98982.72
2018-11-04T17:43:30.232Z,98981.29
2018-11-04T17:46:11.963Z,98978.48
2018-11-04T17:48:42.090Z,98972.11
2018-11-04T17:51:13.875Z,98965.05
2018-11-04T17:53:45.802Z,98978.92
2018-11-04T17:56:18.552Z,98975.98
2018-11-04T17:58:50.314Z,98972.52
2018-11-04T18:01:20.899Z,98974.63
2018-11-04T18:03:53.057Z,98967.39
2018-11-04T18:06:24.058Z,98969.72
2018-11-04T18:09:02.527Z,98967.38
2018-11-04T18:11:35.960Z,98953.50
2018-11-04T18:14:09.610Z,98949.75
2018-11-04T18:16:41.681Z,98953.48
2018-11-04T18:19:17.284Z,98955.20
2018-11-04T18:21:47.756Z,98946.41
2018-11-04T18:24:20.441Z,98949.03
2018-11-04T18:26:54.527Z,98946.84
2018-11-04T18:29:28.485Z,98939.27
2018-11-04T18:32:05.987Z,98925.03
2018-11-04T18:34:40.675Z,98932.07
2018-11-04T18:37:12.621Z,98934.51
2018-11-04T18:39:44.574Z,98930.94
2018-11-04T18:42:17.997Z,98925.48
2018-11-04T18:44:52.717Z,98917.77
2018-11-04T18:47:29.259Z,98915.83
2018-11-04T18:50:06.713Z,98921.08
2018-11-04T18:52:44.181Z,98924.86
2018-11-04T18:55:19.716Z,98922.25
2018-11-04T18:57:54.731Z,98923.47
2018-11-04T19:00:25.083Z,98917.59
2018-11-04T19:03:00.526Z,98918.75
2018-11-04T19:05:31.092Z,98922.48
2018-11-04T19:08:05.304Z,98916.91
2018-11-04T19:10:38.840Z,98912.20
2018-11-04T19:13:13.636Z,98916.38
2018-11-04T19:15:49.940Z,98921.67
2018-11-04T19:18:24.532Z,98932.75
2018-11-04T19:20:58.476Z,98929.78
2018-11-04T19:23:32.009Z,98928.09
2018-11-04T19:26:05.843Z,98926.77
2018-11-04T19:28:39.824Z,98922.69
2018-11-04T19:31:10.422Z,98914.23
2018-11-04T19:33:40.773Z,98915.70
2018-11-04T19:36:11.403Z,98920.22
2018-11-04T19:38:41.838Z,98918.37
2018-11-04T19:41:14.433Z,98915.35
2018-11-04T19:43:45.230Z,98910.50
2018-11-04T19:46:20.822Z,98909.97
2018-11-04T19:48:54.299Z,98907.45
2018-11-04T19:51:27.305Z,98905.84
2018-11-04T19:54:00.371Z,98895.75
2018-11-04T19:56:36.495Z,98896.86
2018-11-04T19:59:14.772Z,98890.12
2018-11-04T20:01:48.757Z,98889.97
2018-11-04T20:04:22.699Z,98893.75
2018-11-04T20:06:56.356Z,98885.55
2018-11-04T20:09:26.928Z,98878.80
2018-11-04T20:12:02.820Z,98883.56
2018-11-04T20:14:38.530Z,98878.31
2018-11-04T20:17:09.774Z,98879.67
2018-11-04T20:19:47.386Z,98890.68
2018-11-04T20:22:19.836Z,98908.86
2018-11-04T20:24:55.464Z,98898.80
2018-11-04T20:27:27.833Z,98892.67
2018-11-04T20:30:06.602Z,98899.18
2018-11-04T20:32:45.255Z,98899.08
2018-11-04T20:35:19.449Z,98900.30
2018-11-04T20:37:56.204Z,98903.55
2018-11-04T20:40:35.350Z,98894.46
2018-11-04T20:43:10.540Z,98885.53
2018-11-04T20:45:42.938Z,98872.48
2018-11-04T20:48:18.259Z,98874.48
2018-11-04T20:51:03.097Z,98864.30
2018-11-04T20:53:38.417Z,98848.03
2018-11-04T20:56:14.737Z,98839.16
2018-11-04T20:58:47.471Z,98837.84
2018-11-04T21:01:21.390Z,98835.52
2018-11-04T21:04:02.748Z,98847.61
2018-11-04T21:06:38.502Z,98840.28
2018-11-04T21:09:24.127Z,98837.02
2018-11-04T21:12:06.960Z,98825.57
2018-11-04T21:14:45.209Z,98833.00
2018-11-04T21:17:19.687Z,98830.68
2018-11-04T21:19:58.649Z,98821.16
2018-11-04T21:22:32.542Z,98821.76
2018-11-04T21:25:10.449Z,98825.88
2018-11-04T21:27:49.043Z,98835.09
2018-11-04T21:30:25.302Z,98831.55
2018-11-04T21:33:06.132Z,98831.89
2018-11-04T21:35:37.772Z,98828.34
2018-11-04T21:38:12.867Z,98834.75
2018-11-04T21:40:50.620Z,98831.36
2018-11-04T21:43:23.634Z,98832.67
2018-11-04T21:45:55.167Z,98826.02
2018-11-04T21:48:27.448Z,98824.61
2018-11-04T21:51:00.936Z,98824.55
2018-11-04T21:53:42.637Z,98830.45
2018-11-04T21:56:20.707Z,98821.17
2018-11-04T21:58:52.753Z,98814.38
2018-11-04T22:01:25.953Z,98817.91
2018-11-04T22:04:00.648Z,98819.80
2018-11-04T22:06:34.626Z,98825.77
2018-11-04T22:09:08.732Z,98823.67
2018-11-04T22:11:42.367Z,98818.32
2018-11-04T22:14:13.536Z,98807.89
2018-11-04T22:16:47.771Z,98802.69
2018-11-04T22:19:22.535Z,98801.55
2018-11-04T22:21:56.418Z,98803.58
2018-11-04T22:24:31.377Z,98800.58
2018-11-04T22:27:09.796Z,98793.73
2018-11-04T22:29:42.621Z,98794.98
2018-11-04T22:32:17.679Z,98794.88
2018-11-04T22:34:50.843Z,98799.61
2018-11-04T22:37:26.126Z,98792.70
2018-11-04T22:40:00.035Z,98792.70
2018-11-04T22:42:33.597Z,98803.48
2018-11-04T22:45:06.658Z,98788.01
2018-11-04T22:47:40.068Z,98794.57
2018-11-04T22:50:16.210Z,98795.43
2018-11-04T22:52:50.536Z,98796.64
2018-11-04T22:55:25.014Z,98787.25
2018-11-04T22:58:02.383Z,98791.95
2018-11-04T23:00:42.291Z,98792.33
2018-11-04T23:03:15.902Z,98795.67
2018-11-04T23:05:49.779Z,98791.18
2018-11-04T23:08:24.887Z,98783.63
2018-11-04T23:10:58.576Z,98780.79
2018-11-04T23:13:32.632Z,98765.25
2018-11-04T23:16:06.535Z,98757.89
2018-11-04T23:18:41.231Z,98759.31
2018-11-04T23:21:14.259Z,98749.03
2018-11-04T23:26:28.338Z,98737.59
2018-11-04T23:29:03.041Z,98731.32
2018-11-04T23:31:39.236Z,98723.41
2018-11-04T23:34:13.901Z,98723.55
2018-11-04T23:36:46.656Z,98714.75
2018-11-04T23:39:19.175Z,98708.41
2018-11-04T23:41:51.574Z,98703.98
2018-11-04T23:44:25.445Z,98704.25
2018-11-04T23:46:59.040Z,98716.16
2018-11-04T23:49:30.188Z,98716.33
2018-11-04T23:52:02.247Z,98710.33
2018-11-04T23:54:36.104Z,98706.50
2018-11-04T23:57:06.623Z,98704.09
2018-11-04T23:59:37.731Z,98705.51
